sensor_id;sensor_type;location;lat;lon;timestamp;pressure;altitude;pressure_sealevel;temperature;humidity
6524;BME280;3295;38.928;-77.052;2023-02-17T00:00:53;100557.91;;;18.12;100.00
6524;BME280;3295;38.928;-77.052;2023-02-17T00:03:23;100564.00;;;18.16;100.00
6524;BME280;3295;38.928;-77.052;2023-02-17T00:05:51;100570.81;;;18.10;100.00
6524;BME280;3295;38.928;-77.052;2023-02-17T00:08:19;100579.34;;;18.08;100.00
6524;BME280;3295;38.928;-77.052;2023-02-17T00:10:55;100569.13;;;18.14;100.00
6524;BME280;3295;38.928;-77.052;2023-02-17T00:13:23;100569.94;;;18.10;100.00
6524;BME280;3295;38.928;-77.052;2023-02-17T00:15:51;100567.28;;;18.07;100.00
6524;BME280;3295;38.928;-77.052;2023-02-17T00:18:19;100557.81;;;18.06;100.00
6524;BME280;3295;38.928;-77.052;2023-02-17T00:20:49;100556.97;;;18.04;100.00
6524;BME280;3295;38.928;-77.052;2023-02-17T00:23:17;100555.25;;;18.06;100.00
6524;BME280;3295;38.928;-77.052;2023-02-17T00:25:45;100556.16;;;18.09;100.00
6524;BME280;3295;38.928;-77.052;2023-02-17T00:28:13;100539.91;;;18.15;100.00
6524;BME280;3295;38.928;-77.052;2023-02-17T00:30:41;100533.00;;;18.14;100.00
6524;BME280;3295;38.928;-77.052;2023-02-17T00:33:08;100519.28;;;18.18;100.00
6524;BME280;3295;38.928;-77.052;2023-02-17T00:35:39;100512.31;;;18.11;100.00
6524;BME280;3295;38.928;-77.052;2023-02-17T00:38:09;100507.19;;;18.14;100.00
6524;BME280;3295;38.928;-77.052;2023-02-17T00:40:37;100514.97;;;18.17;100.00
6524;BME280;3295;38.928;-77.052;2023-02-17T00:43:06;100506.31;;;18.14;100.00
6524;BME280;3295;38.928;-77.052;2023-02-17T00:45:34;100502.09;;;18.17;100.00
6524;BME280;3295;38.928;-77.052;2023-02-17T00:48:02;100507.25;;;18.17;100.00
6524;BME280;3295;38.928;-77.052;2023-02-17T00:50:30;100497.75;;;18.16;100.00
6524;BME280;3295;38.928;-77.052;2023-02-17T00:52:58;100498.66;;;18.21;100.00
6524;BME280;3295;38.928;-77.052;2023-02-17T00:55:27;100501.38;;;18.29;100.00
6524;BME280;3295;38.928;-77.052;2023-02-17T00:57:55;100498.88;;;18.36;100.00
6524;BME280;3295;38.928;-77.052;2023-02-17T01:00:23;100498.81;;;18.33;100.00
6524;BME280;3295;38.928;-77.052;2023-02-17T01:02:51;100504.06;;;18.39;100.00
6524;BME280;3295;38.928;-77.052;2023-02-17T01:05:19;100516.94;;;18.36;100.00
6524;BME280;3295;38.928;-77.052;2023-02-17T01:07:47;100509.13;;;18.30;100.00
6524;BME280;3295;38.928;-77.052;2023-02-17T01:10:15;100524.53;;;18.24;100.00
6524;BME280;3295;38.928;-77.052;2023-02-17T01:12:44;100529.75;;;18.27;100.00
6524;BME280;3295;38.928;-77.052;2023-02-17T01:15:13;100523.72;;;18.28;100.00
6524;BME280;3295;38.928;-77.052;2023-02-17T01:17:41;100533.31;;;18.37;100.00
6524;BME280;3295;38.928;-77.052;2023-02-17T01:20:09;100532.53;;;18.44;100.00
6524;BME280;3295;38.928;-77.052;2023-02-17T01:22:38;100523.88;;;18.40;100.00
6524;BME280;3295;38.928;-77.052;2023-02-17T01:25:06;100521.16;;;18.31;100.00
6524;BME280;3295;38.928;-77.052;2023-02-17T01:27:34;100516.84;;;18.29;100.00
6524;BME280;3295;38.928;-77.052;2023-02-17T01:30:05;100521.97;;;18.26;100.00
6524;BME280;3295;38.928;-77.052;2023-02-17T01:32:35;100521.09;;;18.24;100.00
6524;BME280;3295;38.928;-77.052;2023-02-17T01:35:03;100518.47;;;18.22;100.00
6524;BME280;3295;38.928;-77.052;2023-02-17T01:37:31;100511.50;;;18.15;100.00
6524;BME280;3295;38.928;-77.052;2023-02-17T01:40:00;100498.56;;;18.12;100.00
6524;BME280;3295;38.928;-77.052;2023-02-17T01:42:27;100500.28;;;18.13;100.00
6524;BME280;3295;38.928;-77.052;2023-02-17T01:45:39;100501.22;;;18.20;100.00
6524;BME280;3295;38.928;-77.052;2023-02-17T01:48:10;100502.09;;;18.20;100.00
6524;BME280;3295;38.928;-77.052;2023-02-17T01:50:42;100497.75;;;18.15;100.00
6524;BME280;3295;38.928;-77.052;2023-02-17T01:53:15;100484.00;;;18.19;100.00
6524;BME280;3295;38.928;-77.052;2023-02-17T01:55:46;100487.56;;;18.27;100.00
6524;BME280;3295;38.928;-77.052;2023-02-17T01:58:17;100485.00;;;18.28;100.00
6524;BME280;3295;38.928;-77.052;2023-02-17T02:00:50;100504.69;;;18.22;100.00
6524;BME280;3295;38.928;-77.052;2023-02-17T02:03:19;100503.03;;;18.25;100.00
6524;BME280;3295;38.928;-77.052;2023-02-17T02:05:47;100509.00;;;18.21;100.00
6524;BME280;3295;38.928;-77.052;2023-02-17T02:08:16;100509.13;;;18.30;100.00
6524;BME280;3295;38.928;-77.052;2023-02-17T02:10:44;100512.59;;;18.31;100.00
6524;BME280;3295;38.928;-77.052;2023-02-17T02:13:12;100503.97;;;18.33;100.00
6524;BME280;3295;38.928;-77.052;2023-02-17T02:15:43;100495.44;;;18.37;100.00
6524;BME280;3295;38.928;-77.052;2023-02-17T02:18:28;100503.16;;;18.36;100.00
6524;BME280;3295;38.928;-77.052;2023-02-17T02:24:20;100498.47;;;18.06;100.00
6524;BME280;3295;38.928;-77.052;2023-02-17T02:27:40;100505.38;;;18.07;100.00
6524;BME280;3295;38.928;-77.052;2023-02-17T02:33:23;100511.41;;;18.09;100.00
6524;BME280;3295;38.928;-77.052;2023-02-17T02:35:57;100524.41;;;18.14;100.00
6524;BME280;3295;38.928;-77.052;2023-02-17T02:38:29;100522.75;;;18.20;100.00
6524;BME280;3295;38.928;-77.052;2023-02-17T02:41:02;100518.44;;;18.21;100.00
6524;BME280;3295;38.928;-77.052;2023-02-17T02:43:31;100520.19;;;18.22;100.00
6524;BME280;3295;38.928;-77.052;2023-02-17T02:45:59;100513.34;;;18.24;100.00
6524;BME280;3295;38.928;-77.052;2023-02-17T02:48:29;100515.94;;;18.25;100.00
6524;BME280;3295;38.928;-77.052;2023-02-17T02:51:13;100524.69;;;18.36;100.00
6524;BME280;3295;38.928;-77.052;2023-02-17T02:54:01;100524.72;;;18.39;100.00
6524;BME280;3295;38.928;-77.052;2023-02-17T02:56:40;100517.00;;;18.41;100.00
6524;BME280;3295;38.928;-77.052;2023-02-17T02:59:22;100520.31;;;18.32;100.00
6524;BME280;3295;38.928;-77.052;2023-02-17T03:02:00;100527.00;;;18.18;100.00
6524;BME280;3295;38.928;-77.052;2023-02-17T03:04:34;100517.22;;;17.94;100.00
6524;BME280;3295;38.928;-77.052;2023-02-17T03:07:10;100527.56;;;17.96;100.00
6524;BME280;3295;38.928;-77.052;2023-02-17T03:09:46;100552.38;;;17.86;100.00
6524;BME280;3295;38.928;-77.052;2023-02-17T03:12:14;100563.50;;;17.82;100.00
6524;BME280;3295;38.928;-77.052;2023-02-17T03:14:42;100558.53;;;17.96;100.00
6524;BME280;3295;38.928;-77.052;2023-02-17T03:17:10;100554.22;;;17.95;100.00
6524;BME280;3295;38.928;-77.052;2023-02-17T03:19:40;100539.53;;;17.91;100.00
6524;BME280;3295;38.928;-77.052;2023-02-17T03:22:15;100551.56;;;17.89;100.00
6524;BME280;3295;38.928;-77.052;2023-02-17T03:24:47;100538.81;;;17.99;100.00
6524;BME280;3295;38.928;-77.052;2023-02-17T03:27:15;100537.09;;;18.00;100.00
6524;BME280;3295;38.928;-77.052;2023-02-17T03:29:43;100520.78;;;18.01;100.00
6524;BME280;3295;38.928;-77.052;2023-02-17T03:32:11;100524.25;;;18.03;100.00
6524;BME280;3295;38.928;-77.052;2023-02-17T03:34:41;100503.63;;;18.06;100.00
6524;BME280;3295;38.928;-77.052;2023-02-17T03:37:08;100508.84;;;18.09;100.00
6524;BME280;3295;38.928;-77.052;2023-02-17T03:39:36;100505.41;;;18.10;100.00
6524;BME280;3295;38.928;-77.052;2023-02-17T03:42:04;100517.34;;;18.02;100.00
6524;BME280;3295;38.928;-77.052;2023-02-17T03:44:32;100511.38;;;18.06;100.00
6524;BME280;3295;38.928;-77.052;2023-02-17T03:47:00;100514.03;;;18.12;100.00
6524;BME280;3295;38.928;-77.052;2023-02-17T03:49:28;100498.59;;;18.15;100.00
6524;BME280;3295;38.928;-77.052;2023-02-17T03:51:58;100490.91;;;18.20;100.00
6524;BME280;3295;38.928;-77.052;2023-02-17T03:54:26;100487.44;;;18.19;100.00
6524;BME280;3295;38.928;-77.052;2023-02-17T03:56:54;100483.13;;;18.18;100.00
6524;BME280;3295;38.928;-77.052;2023-02-17T03:59:22;100479.72;;;18.19;100.00
6524;BME280;3295;38.928;-77.052;2023-02-17T04:01:50;100450.50;;;18.23;100.00
6524;BME280;3295;38.928;-77.052;2023-02-17T04:04:18;100431.56;;;18.21;100.00
6524;BME280;3295;38.928;-77.052;2023-02-17T04:06:46;100413.50;;;18.21;100.00
6524;BME280;3295;38.928;-77.052;2023-02-17T04:09:15;100395.31;;;18.12;100.00
6524;BME280;3295;38.928;-77.052;2023-02-17T04:11:43;100359.97;;;18.03;100.00
6524;BME280;3295;38.928;-77.052;2023-02-17T04:14:11;100350.38;;;17.95;100.00
6524;BME280;3295;38.928;-77.052;2023-02-17T04:16:39;100302.97;;;17.85;100.00
6524;BME280;3295;38.928;-77.052;2023-02-17T04:19:07;100301.22;;;17.83;100.00
6524;BME280;3295;38.928;-77.052;2023-02-17T04:21:35;100308.97;;;17.83;100.00
6524;BME280;3295;38.928;-77.052;2023-02-17T04:24:03;100322.72;;;17.82;100.00
6524;BME280;3295;38.928;-77.052;2023-02-17T04:26:32;100317.59;;;17.85;100.00
6524;BME280;3295;38.928;-77.052;2023-02-17T04:29:02;100309.06;;;17.92;100.00
6524;BME280;3295;38.928;-77.052;2023-02-17T04:31:31;100291.88;;;17.94;100.00
6524;BME280;3295;38.928;-77.052;2023-02-17T04:33:58;100306.53;;;17.95;100.00
6524;BME280;3295;38.928;-77.052;2023-02-17T04:36:26;100292.84;;;18.00;100.00
6524;BME280;3295;38.928;-77.052;2023-02-17T04:38:54;100295.44;;;18.05;100.00
6524;BME280;3295;38.928;-77.052;2023-02-17T04:41:22;100281.72;;;18.09;100.00
6524;BME280;3295;38.928;-77.052;2023-02-17T04:43:52;100287.81;;;18.14;100.00
6524;BME280;3295;38.928;-77.052;2023-02-17T04:46:20;100289.50;;;18.10;100.00
6524;BME280;3295;38.928;-77.052;2023-02-17T04:48:48;100288.66;;;18.13;100.00
6524;BME280;3295;38.928;-77.052;2023-02-17T04:51:15;100281.78;;;18.12;100.00
6524;BME280;3295;38.928;-77.052;2023-02-17T04:53:43;100282.63;;;18.11;100.00
6524;BME280;3295;38.928;-77.052;2023-02-17T04:56:12;100281.69;;;18.06;100.00
6524;BME280;3295;38.928;-77.052;2023-02-17T04:58:40;100301.47;;;18.02;100.00
6524;BME280;3295;38.928;-77.052;2023-02-17T05:01:09;100300.47;;;17.91;100.00
6524;BME280;3295;38.928;-77.052;2023-02-17T05:03:37;100290.97;;;17.87;100.00
6524;BME280;3295;38.928;-77.052;2023-02-17T05:06:06;100284.09;;;17.88;100.00
6524;BME280;3295;38.928;-77.052;2023-02-17T05:08:34;100265.25;;;17.95;100.00
6524;BME280;3295;38.928;-77.052;2023-02-17T05:11:02;100264.31;;;17.87;100.00
6524;BME280;3295;38.928;-77.052;2023-02-17T05:13:30;100260.84;;;17.85;100.00
6524;BME280;3295;38.928;-77.052;2023-02-17T05:15:58;100256.53;;;17.84;100.00
6524;BME280;3295;38.928;-77.052;2023-02-17T05:18:28;100246.22;;;17.85;100.00
6524;BME280;3295;38.928;-77.052;2023-02-17T05:20:55;100235.06;;;17.85;100.00
6524;BME280;3295;38.928;-77.052;2023-02-17T05:23:25;100224.72;;;17.85;100.00
6524;BME280;3295;38.928;-77.052;2023-02-17T05:25:53;100228.19;;;17.87;100.00
6524;BME280;3295;38.928;-77.052;2023-02-17T05:28:20;100228.19;;;17.87;100.00
6524;BME280;3295;38.928;-77.052;2023-02-17T05:30:49;100222.97;;;17.81;100.00
6524;BME280;3295;38.928;-77.052;2023-02-17T05:33:16;100223.81;;;17.77;100.00
6524;BME280;3295;38.928;-77.052;2023-02-17T05:35:46;100214.38;;;17.82;100.00
6524;BME280;3295;38.928;-77.052;2023-02-17T05:38:14;100211.88;;;17.89;100.00
6524;BME280;3295;38.928;-77.052;2023-02-17T05:40:42;100208.34;;;17.81;100.00
6524;BME280;3295;38.928;-77.052;2023-02-17T05:43:10;100210.09;;;17.82;100.00
6524;BME280;3295;38.928;-77.052;2023-02-17T05:45:37;100223.91;;;17.87;100.00
6524;BME280;3295;38.928;-77.052;2023-02-17T05:48:05;100235.00;;;17.82;100.00
6524;BME280;3295;38.928;-77.052;2023-02-17T05:50:33;100223.00;;;17.84;100.00
6524;BME280;3295;38.928;-77.052;2023-02-17T05:53:03;100227.28;;;17.83;100.00
6524;BME280;3295;38.928;-77.052;2023-02-17T05:55:31;100204.06;;;17.82;100.00
6524;BME280;3295;38.928;-77.052;2023-02-17T05:57:59;100188.63;;;17.85;100.00
6524;BME280;3295;38.928;-77.052;2023-02-17T06:00:27;100168.81;;;17.84;100.00
6524;BME280;3295;38.928;-77.052;2023-02-17T06:02:55;100143.88;;;17.83;100.00
6524;BME280;3295;38.928;-77.052;2023-02-17T06:05:23;100130.09;;;17.81;100.00
6524;BME280;3295;38.928;-77.052;2023-02-17T06:07:50;100125.81;;;17.81;100.00
6524;BME280;3295;38.928;-77.052;2023-02-17T06:10:20;100140.34;;;17.71;100.00
6524;BME280;3295;38.928;-77.052;2023-02-17T06:12:48;100130.94;;;17.75;100.00
6524;BME280;3295;38.928;-77.052;2023-02-17T06:15:16;100148.13;;;17.79;100.00
6524;BME280;3295;38.928;-77.052;2023-02-17T06:17:44;100115.47;;;17.78;100.00
6524;BME280;3295;38.928;-77.052;2023-02-17T06:20:12;100102.56;;;17.80;100.00
6524;BME280;3295;38.928;-77.052;2023-02-17T06:22:40;100108.59;;;17.80;100.00
6524;BME280;3295;38.928;-77.052;2023-02-17T06:25:08;100099.09;;;17.71;100.00
6524;BME280;3295;38.928;-77.052;2023-02-17T06:27:38;100109.19;;;17.53;100.00
6524;BME280;3295;38.928;-77.052;2023-02-17T06:30:08;100122.84;;;17.43;100.00
6524;BME280;3295;38.928;-77.052;2023-02-17T06:32:36;100122.88;;;17.46;100.00
6524;BME280;3295;38.928;-77.052;2023-02-17T06:35:05;100092.94;;;17.60;100.00
6524;BME280;3295;38.928;-77.052;2023-02-17T06:37:33;100085.25;;;17.63;100.00
6524;BME280;3295;38.928;-77.052;2023-02-17T06:40:00;100078.38;;;17.65;100.00
6524;BME280;3295;38.928;-77.052;2023-02-17T06:42:28;100086.84;;;17.52;100.00
6524;BME280;3295;38.928;-77.052;2023-02-17T06:44:58;100100.59;;;17.54;100.00
6524;BME280;3295;38.928;-77.052;2023-02-17T06:47:30;100074.06;;;17.63;100.00
6524;BME280;3295;38.928;-77.052;2023-02-17T06:49:58;100084.47;;;17.70;100.00
6524;BME280;3295;38.928;-77.052;2023-02-17T06:52:26;100077.56;;;17.69;100.00
6524;BME280;3295;38.928;-77.052;2023-02-17T06:54:54;100087.94;;;17.75;100.00
6524;BME280;3295;38.928;-77.052;2023-02-17T06:57:21;100063.03;;;17.81;100.00
6524;BME280;3295;38.928;-77.052;2023-02-17T06:59:49;100075.91;;;17.77;100.00
6524;BME280;3295;38.928;-77.052;2023-02-17T07:02:19;100094.81;;;17.78;100.00
6524;BME280;3295;38.928;-77.052;2023-02-17T07:04:47;100090.53;;;17.75;100.00
6524;BME280;3295;38.928;-77.052;2023-02-17T07:07:15;100094.66;;;17.61;100.00
6524;BME280;3295;38.928;-77.052;2023-02-17T07:09:43;100105.91;;;17.66;100.00
6524;BME280;3295;38.928;-77.052;2023-02-17T07:12:10;100108.63;;;17.82;100.00
6524;BME280;3295;38.928;-77.052;2023-02-17T07:14:38;100107.78;;;17.83;100.00
6524;BME280;3295;38.928;-77.052;2023-02-17T07:17:06;100094.09;;;17.90;100.00
6524;BME280;3295;38.928;-77.052;2023-02-17T07:19:36;100084.66;;;17.95;100.00
6524;BME280;3295;38.928;-77.052;2023-02-17T07:22:03;100039.94;;;17.97;100.00
6524;BME280;3295;38.928;-77.052;2023-02-17T07:24:31;100056.28;;;17.98;100.00
6524;BME280;3295;38.928;-77.052;2023-02-17T07:27:00;100037.38;;;17.99;100.00
6524;BME280;3295;38.928;-77.052;2023-02-17T07:29:28;100019.31;;;17.97;100.00
6524;BME280;3295;38.928;-77.052;2023-02-17T07:31:56;100005.56;;;17.98;100.00
6524;BME280;3295;38.928;-77.052;2023-02-17T07:34:24;99999.53;;;17.96;100.00
6524;BME280;3295;38.928;-77.052;2023-02-17T07:36:53;99994.34;;;17.95;100.00
6524;BME280;3295;38.928;-77.052;2023-02-17T07:39:21;99995.19;;;17.92;100.00
6524;BME280;3295;38.928;-77.052;2023-02-17T07:41:49;99996.97;;;17.99;100.00
6524;BME280;3295;38.928;-77.052;2023-02-17T07:44:17;99988.38;;;18.05;100.00
6524;BME280;3295;38.928;-77.052;2023-02-17T07:46:44;99978.97;;;18.13;100.00
6524;BME280;3295;38.928;-77.052;2023-02-17T07:49:12;99974.69;;;18.17;100.00
6524;BME280;3295;38.928;-77.052;2023-02-17T07:51:43;99966.94;;;18.15;100.00
6524;BME280;3295;38.928;-77.052;2023-02-17T07:54:12;99970.41;;;18.17;100.00
6524;BME280;3295;38.928;-77.052;2023-02-17T07:56:41;99949.75;;;18.20;100.00
6524;BME280;3295;38.928;-77.052;2023-02-17T07:59:09;99942.88;;;18.16;100.00
6524;BME280;3295;38.928;-77.052;2023-02-17T08:01:37;99930.81;;;18.18;100.00
6524;BME280;3295;38.928;-77.052;2023-02-17T08:04:05;99917.06;;;18.19;100.00
6524;BME280;3295;38.928;-77.052;2023-02-17T08:06:33;99913.63;;;18.16;100.00
6524;BME280;3295;38.928;-77.052;2023-02-17T08:09:00;99904.19;;;18.18;100.00
6524;BME280;3295;38.928;-77.052;2023-02-17T08:11:47;99871.44;;;18.18;100.00
6524;BME280;3295;38.928;-77.052;2023-02-17T08:14:32;99880.06;;;18.16;100.00
6524;BME280;3295;38.928;-77.052;2023-02-17T08:17:00;99885.22;;;18.13;100.00
6524;BME280;3295;38.928;-77.052;2023-02-17T08:19:28;99881.72;;;17.97;100.00
6524;BME280;3295;38.928;-77.052;2023-02-17T08:21:56;99868.81;;;17.98;100.00
6524;BME280;3295;38.928;-77.052;2023-02-17T08:24:24;99861.06;;;17.94;100.00
6524;BME280;3295;38.928;-77.052;2023-02-17T08:26:53;99843.91;;;18.08;100.00
6524;BME280;3295;38.928;-77.052;2023-02-17T08:29:21;99822.41;;;18.09;100.00
6524;BME280;3295;38.928;-77.052;2023-02-17T08:31:51;99837.03;;;18.10;100.00
6524;BME280;3295;38.928;-77.052;2023-02-17T08:34:19;99861.13;;;18.09;100.00
6524;BME280;3295;38.928;-77.052;2023-02-17T08:36:47;99886.91;;;18.09;100.00
6524;BME280;3295;38.928;-77.052;2023-02-17T08:39:16;99900.63;;;17.96;100.00
6524;BME280;3295;38.928;-77.052;2023-02-17T08:41:44;99908.41;;;18.02;100.00
6524;BME280;3295;38.928;-77.052;2023-02-17T08:44:15;99913.50;;;17.90;100.00
6524;BME280;3295;38.928;-77.052;2023-02-17T08:46:44;99910.13;;;18.03;100.00
6524;BME280;3295;38.928;-77.052;2023-02-17T08:49:13;99917.03;;;18.13;100.00
6524;BME280;3295;38.928;-77.052;2023-02-17T08:51:42;99915.31;;;18.18;100.00
6524;BME280;3295;38.928;-77.052;2023-02-17T08:54:10;99911.03;;;18.22;100.00
6524;BME280;3295;38.928;-77.052;2023-02-17T08:56:40;99918.78;;;18.20;100.00
6524;BME280;3295;38.928;-77.052;2023-02-17T08:59:08;99917.09;;;18.25;100.00
6524;BME280;3295;38.928;-77.052;2023-02-17T09:01:38;99914.50;;;18.24;100.00
6524;BME280;3295;38.928;-77.052;2023-02-17T09:04:07;99893.88;;;18.25;100.00
6524;BME280;3295;38.928;-77.052;2023-02-17T09:06:37;99889.59;;;18.30;100.00
6524;BME280;3295;38.928;-77.052;2023-02-17T09:09:07;99888.69;;;18.31;100.00
6524;BME280;3295;38.928;-77.052;2023-02-17T09:11:35;99884.38;;;18.24;100.00
6524;BME280;3295;38.928;-77.052;2023-02-17T09:14:04;99901.63;;;18.28;100.00
6524;BME280;3295;38.928;-77.052;2023-02-17T09:16:32;99842.25;;;18.37;100.00
6524;BME280;3295;38.928;-77.052;2023-02-17T09:19:01;99799.22;;;18.35;100.00
6524;BME280;3295;38.928;-77.052;2023-02-17T09:21:29;99831.06;;;18.32;100.00
6524;BME280;3295;38.928;-77.052;2023-02-17T09:23:57;99910.25;;;18.36;100.00
6524;BME280;3295;38.928;-77.052;2023-02-17T09:26:25;99858.59;;;18.33;100.00
6524;BME280;3295;38.928;-77.052;2023-02-17T09:28:53;99883.59;;;18.42;100.00
6524;BME280;3295;38.928;-77.052;2023-02-17T09:31:24;99893.91;;;18.42;100.00
6524;BME280;3295;38.928;-77.052;2023-02-17T09:33:53;99884.44;;;18.42;100.00
6524;BME280;3295;38.928;-77.052;2023-02-17T09:36:24;99881.88;;;18.44;100.00
6524;BME280;3295;38.928;-77.052;2023-02-17T09:38:53;99859.50;;;18.44;100.00
6524;BME280;3295;38.928;-77.052;2023-02-17T09:41:23;99904.25;;;18.42;100.00
6524;BME280;3295;38.928;-77.052;2023-02-17T09:43:54;99905.09;;;18.42;100.00
6524;BME280;3295;38.928;-77.052;2023-02-17T09:46:28;99915.44;;;18.41;100.00
6524;BME280;3295;38.928;-77.052;2023-02-17T09:49:00;99910.28;;;18.42;100.00
6524;BME280;3295;38.928;-77.052;2023-02-17T09:51:33;99901.66;;;18.40;100.00
6524;BME280;3295;38.928;-77.052;2023-02-17T09:54:05;99896.50;;;18.40;100.00
6524;BME280;3295;38.928;-77.052;2023-02-17T09:56:37;99900.81;;;18.43;100.00
6524;BME280;3295;38.928;-77.052;2023-02-17T09:59:12;99905.09;;;18.42;100.00
6524;BME280;3295;38.928;-77.052;2023-02-17T10:01:41;99917.16;;;18.40;100.00
6524;BME280;3295;38.928;-77.052;2023-02-17T10:04:13;99909.41;;;18.42;100.00
6524;BME280;3295;38.928;-77.052;2023-02-17T10:06:46;99907.69;;;18.41;100.00
6524;BME280;3295;38.928;-77.052;2023-02-17T10:09:19;99907.69;;;18.42;100.00
6524;BME280;3295;38.928;-77.052;2023-02-17T10:11:53;99901.66;;;18.43;100.00
6524;BME280;3295;38.928;-77.052;2023-02-17T10:14:27;99903.38;;;18.38;100.00
6524;BME280;3295;38.928;-77.052;2023-02-17T10:17:00;99906.78;;;18.36;100.00
6524;BME280;3295;38.928;-77.052;2023-02-17T10:19:31;99912.81;;;18.35;100.00
6524;BME280;3295;38.928;-77.052;2023-02-17T10:22:06;99915.41;;;18.30;100.00
6524;BME280;3295;38.928;-77.052;2023-02-17T10:24:35;99922.28;;;18.34;100.00
6524;BME280;3295;38.928;-77.052;2023-02-17T10:27:17;99918.84;;;18.35;100.00
6524;BME280;3295;38.928;-77.052;2023-02-17T10:29:54;99918.84;;;18.38;100.00
6524;BME280;3295;38.928;-77.052;2023-02-17T10:32:27;99918.03;;;18.44;100.00
6524;BME280;3295;38.928;-77.052;2023-02-17T10:35:23;99920.56;;;18.36;100.00
6524;BME280;3295;38.928;-77.052;2023-02-17T10:38:00;99900.75;;;18.34;100.00
6524;BME280;3295;38.928;-77.052;2023-02-17T10:40:33;99894.75;;;18.36;100.00
6524;BME280;3295;38.928;-77.052;2023-02-17T10:43:02;99888.75;;;18.39;100.00
6524;BME280;3295;38.928;-77.052;2023-02-17T10:45:34;99886.16;;;18.37;100.00
6524;BME280;3295;38.928;-77.052;2023-02-17T10:48:06;99869.78;;;18.32;100.00
6524;BME280;3295;38.928;-77.052;2023-02-17T10:50:36;99881.84;;;18.36;100.00
6524;BME280;3295;38.928;-77.052;2023-02-17T10:53:13;99887.84;;;18.28;100.00
6524;BME280;3295;38.928;-77.052;2023-02-17T10:55:51;99907.63;;;18.32;100.00
6524;BME280;3295;38.928;-77.052;2023-02-17T10:58:24;99894.72;;;18.33;100.00
6524;BME280;3295;38.928;-77.052;2023-02-17T11:00:55;99893.91;;;18.37;100.00
6524;BME280;3295;38.928;-77.052;2023-02-17T11:03:26;99893.03;;;18.35;100.00
6524;BME280;3295;38.928;-77.052;2023-02-17T11:05:56;99891.31;;;18.37;100.00
6524;BME280;3295;38.928;-77.052;2023-02-17T11:08:31;99884.41;;;18.33;100.00
6524;BME280;3295;38.928;-77.052;2023-02-17T11:11:02;99881.81;;;18.33;100.00
6524;BME280;3295;38.928;-77.052;2023-02-17T11:13:35;99874.09;;;18.36;100.00
6524;BME280;3295;38.928;-77.052;2023-02-17T11:16:04;99873.25;;;18.42;100.00
6524;BME280;3295;38.928;-77.052;2023-02-17T11:18:35;99872.34;;;18.32;100.00
6524;BME280;3295;38.928;-77.052;2023-02-17T11:21:07;99862.06;;;18.41;100.00
6524;BME280;3295;38.928;-77.052;2023-02-17T11:23:46;99860.34;;;18.46;100.00
6524;BME280;3295;38.928;-77.052;2023-02-17T11:26:19;99873.28;;;18.51;100.00
6524;BME280;3295;38.928;-77.052;2023-02-17T11:28:48;99864.66;;;18.47;100.00
6524;BME280;3295;38.928;-77.052;2023-02-17T11:31:22;99862.94;;;18.48;100.00
6524;BME280;3295;38.928;-77.052;2023-02-17T11:33:51;99862.94;;;18.46;100.00
6524;BME280;3295;38.928;-77.052;2023-02-17T11:36:23;99868.94;;;18.45;100.00
6524;BME280;3295;38.928;-77.052;2023-02-17T11:38:54;99850.03;;;18.50;100.00
6524;BME280;3295;38.928;-77.052;2023-02-17T11:41:23;99867.25;;;18.41;100.00
6524;BME280;3295;38.928;-77.052;2023-02-17T11:43:52;99850.03;;;18.50;100.00
6524;BME280;3295;38.928;-77.052;2023-02-17T11:46:28;99844.84;;;18.46;100.00
6524;BME280;3295;38.928;-77.052;2023-02-17T11:49:14;99835.38;;;18.48;100.00
6524;BME280;3295;38.928;-77.052;2023-02-17T11:51:57;99826.78;;;18.45;100.00
6524;BME280;3295;38.928;-77.052;2023-02-17T11:54:35;99818.16;;;18.46;100.00
6524;BME280;3295;38.928;-77.052;2023-02-17T11:57:17;99805.28;;;18.40;100.00
6524;BME280;3295;38.928;-77.052;2023-02-17T12:00:01;99799.22;;;18.32;100.00
6524;BME280;3295;38.928;-77.052;2023-02-17T12:02:43;99786.34;;;18.42;100.00
6524;BME280;3295;38.928;-77.052;2023-02-17T12:05:22;99798.41;;;18.43;100.00
6524;BME280;3295;38.928;-77.052;2023-02-17T12:08:02;99788.94;;;18.42;100.00
6524;BME280;3295;38.928;-77.052;2023-02-17T12:10:44;99782.88;;;18.37;100.00
6524;BME280;3295;38.928;-77.052;2023-02-17T12:13:28;99774.28;;;18.35;100.00
6524;BME280;3295;38.928;-77.052;2023-02-17T12:16:10;99760.53;;;18.30;100.00
6524;BME280;3295;38.928;-77.052;2023-02-17T12:18:51;99754.50;;;18.36;100.00
6524;BME280;3295;38.928;-77.052;2023-02-17T12:21:30;99742.44;;;18.38;100.00
6524;BME280;3295;38.928;-77.052;2023-02-17T12:24:17;99751.06;;;18.26;100.00
6524;BME280;3295;38.928;-77.052;2023-02-17T12:26:57;99768.25;;;18.29;100.00
6524;BME280;3295;38.928;-77.052;2023-02-17T12:29:38;99770.81;;;18.32;100.00
6524;BME280;3295;38.928;-77.052;2023-02-17T12:32:21;99761.38;;;18.38;100.00
6524;BME280;3295;38.928;-77.052;2023-02-17T12:34:55;99758.78;;;18.32;100.00
6524;BME280;3295;38.928;-77.052;2023-02-17T12:37:29;99753.63;;;18.38;100.00
6524;BME280;3295;38.928;-77.052;2023-02-17T12:40:00;99754.50;;;18.42;100.00
6524;BME280;3295;38.928;-77.052;2023-02-17T12:42:34;99766.53;;;18.49;100.00
6524;BME280;3295;38.928;-77.052;2023-02-17T12:45:06;99767.41;;;18.51;100.00
6524;BME280;3295;38.928;-77.052;2023-02-17T12:47:48;99745.00;;;18.45;100.00
6524;BME280;3295;38.928;-77.052;2023-02-17T12:50:24;99770.84;;;18.47;100.00
6524;BME280;3295;38.928;-77.052;2023-02-17T12:52:57;99770.84;;;18.47;100.00
6524;BME280;3295;38.928;-77.052;2023-02-17T12:55:29;99751.91;;;18.46;100.00
6524;BME280;3295;38.928;-77.052;2023-02-17T12:58:06;99757.09;;;18.42;100.00
6524;BME280;3295;38.928;-77.052;2023-02-17T13:00:38;99775.13;;;18.24;100.00
6524;BME280;3295;38.928;-77.052;2023-02-17T13:03:08;99787.19;;;18.29;100.00
6524;BME280;3295;38.928;-77.052;2023-02-17T13:05:41;99773.44;;;18.38;100.00
6524;BME280;3295;38.928;-77.052;2023-02-17T13:08:15;99757.94;;;18.41;100.00
6524;BME280;3295;38.928;-77.052;2023-02-17T13:10:46;99757.94;;;18.41;100.00